logo dgac
Miércoles 28 de Febrero del 2024
Buscar por aerodromo o helipuerto
Ingrese nombre de aeródromo, localidad o designador OACI:
TAF: TAF SCVD 271706Z 2718/2806 28005KT CAVOK TX23/2719Z TN12/2805Z BECMG 2718/2720 8000 -RA SCT040 BKN050 BECMG 2720/2722 9999 NSW BKN005 OVC010
TAF del 27/02/2024 a las 17:06 UTC
Para mayor información visite www.meteochile.gob.cl
Período de validez: desde el 27 a las 18:00 UTC hasta el 28 a las 06:00 UTC
Viento: dirección 280 grados, velocidad 5 nudos
Visibilidad: 10 km o más,
    sin nubes bajo los 5.000 pies o bajo del MSA (Mínimo de Seguridad del Aeródromo),
    sin cumulonimbus, y sin fenómenos de tiempo significativo en el aeródromo o alrededores
Temperatura máxima: 23ºC el 27 a las 19:00 UTC
Temperatura mínima: 12ºC el 28 a las 05:00 UTC
Se espera un cambio entre las 18:00 UTC del 27 y las 20:00 UTC del 27, :
Visibilidad: 8000 metros
Débil Lluvia
Nubes: Nubosidad parcial a 4000 pies sobre el nivel del aeródromo
Nubes: Nublado a 5000 pies sobre el nivel del aeródromo
Se espera un cambio entre las 20:00 UTC del 27 y las 22:00 UTC del 27, :
Visibilidad: 10 km o más
No significant weather phenomena are observed at present
Nubes: Nublado a 500 pies sobre el nivel del aeródromo
Nubes: Cubierto a 1000 pies sobre el nivel del aeródromo